createdAt,value
2023-09-06T00:01:00.841Z,6.15
2023-09-06T00:06:02.669Z,5.35
2023-09-06T00:11:07.419Z,6.22
2023-09-06T00:16:09.096Z,6.30
2023-09-06T00:21:10.856Z,5.85
2023-09-06T00:26:12.560Z,5.82
2023-09-06T00:31:14.437Z,5.25
2023-09-06T00:36:16.189Z,6.88
2023-09-06T00:41:18.848Z,6.45
2023-09-06T00:46:20.899Z,5.70
2023-09-06T00:51:22.646Z,5.80
2023-09-06T00:56:24.297Z,5.32
2023-09-06T01:01:26.160Z,6.30
2023-09-06T01:06:29.774Z,7.28
2023-09-06T01:11:33.136Z,6.20
2023-09-06T01:16:41.575Z,5.25
2023-09-06T01:21:49.927Z,6.05
2023-09-06T01:26:51.858Z,6.32
2023-09-06T01:31:53.659Z,6.50
2023-09-06T01:36:55.450Z,6.35
2023-09-06T01:41:57.249Z,6.45
2023-09-06T01:46:59.020Z,6.18
2023-09-06T01:52:01.135Z,6.55
2023-09-06T01:57:02.852Z,6.32
2023-09-06T02:02:05.611Z,6.53
2023-09-06T02:07:07.349Z,6.60
2023-09-06T02:12:09.143Z,7.10
2023-09-06T02:17:10.878Z,6.72
2023-09-06T02:22:12.757Z,6.65
2023-09-06T02:27:14.915Z,6.53
2023-09-06T02:32:19.940Z,6.85
2023-09-06T02:37:21.670Z,6.22
2023-09-06T02:42:23.642Z,5.72
2023-09-06T02:47:29.875Z,6.63
2023-09-06T02:52:34.305Z,6.90
2023-09-06T02:57:36.187Z,6.53
2023-09-06T03:02:37.897Z,6.38
2023-09-06T03:07:41.618Z,6.57
2023-09-06T03:12:45.099Z,6.25
2023-09-06T03:17:48.308Z,6.40
2023-09-06T03:22:51.400Z,5.93
2023-09-06T03:28:01.437Z,7.07
2023-09-06T03:33:07.463Z,6.50
2023-09-06T03:38:12.192Z,6.70
2023-09-06T03:43:17.152Z,6.78
2023-09-06T03:48:21.799Z,6.38
2023-09-06T03:53:27.772Z,6.65
2023-09-06T03:58:30.626Z,6.43
2023-09-06T04:03:33.535Z,6.03
2023-09-06T04:08:37.681Z,6.50
2023-09-06T04:13:40.488Z,5.95
2023-09-06T04:18:43.615Z,6.38
2023-09-06T04:23:46.041Z,5.95
2023-09-06T04:28:51.188Z,5.93
2023-09-06T04:33:55.123Z,5.53
2023-09-06T04:38:59.906Z,6.57
2023-09-06T04:44:04.089Z,6.28
2023-09-06T04:49:06.124Z,6.15
2023-09-06T04:54:10.785Z,5.70
2023-09-06T04:59:14.003Z,6.32
2023-09-06T05:04:16.173Z,6.65
2023-09-06T05:09:20.549Z,6.25
2023-09-06T05:14:22.699Z,5.70
2023-09-06T05:19:28.785Z,5.93
2023-09-06T05:24:31.234Z,5.47
2023-09-06T05:29:33.849Z,6.35
2023-09-06T05:34:35.914Z,6.43
2023-09-06T05:39:41.174Z,4.82
2023-09-06T05:44:44.165Z,5.10
2023-09-06T05:49:48.025Z,5.38
2023-09-06T05:54:53.869Z,5.18
2023-09-06T05:59:58.899Z,5.18
2023-09-06T06:05:00.683Z,4.10
2023-09-06T06:10:02.569Z,4.10
2023-09-06T06:15:04.642Z,3.75
2023-09-06T06:20:12.262Z,3.92
2023-09-06T06:25:14.277Z,2.90
2023-09-06T06:30:16.100Z,3.35
2023-09-06T06:35:17.798Z,3.83
2023-09-06T06:40:19.597Z,3.58
2023-09-06T06:45:21.301Z,3.90
2023-09-06T06:50:23.550Z,3.45
2023-09-06T06:55:25.361Z,3.55
2023-09-06T07:00:35.607Z,3.47
2023-09-06T07:05:37.333Z,3.55
2023-09-06T07:10:39.058Z,3.53
2023-09-06T07:15:41.274Z,3.70
2023-09-06T07:20:43.544Z,3.28
2023-09-06T07:25:45.972Z,3.47
2023-09-06T07:30:47.663Z,3.33
2023-09-06T07:35:49.291Z,3.33
2023-09-06T07:41:04.648Z,3.70
2023-09-06T07:46:11.145Z,3.80
2023-09-06T07:51:13.425Z,3.63
2023-09-06T07:56:15.156Z,4.03
2023-09-06T08:01:19.460Z,3.05
2023-09-06T08:06:21.611Z,3.38
2023-09-06T08:11:23.444Z,3.50
2023-09-06T08:16:25.236Z,3.10
2023-09-06T08:21:27.106Z,3.03
2023-09-06T08:26:29.601Z,3.78
2023-09-06T08:31:31.456Z,3.08
2023-09-06T08:36:33.192Z,3.75
2023-09-06T08:41:35.003Z,3.53
2023-09-06T08:46:42.730Z,3.15
2023-09-06T08:51:44.709Z,3.17
2023-09-06T08:56:46.697Z,3.72
2023-09-06T09:01:48.504Z,3.30
2023-09-06T09:06:50.342Z,3.00
2023-09-06T09:11:53.165Z,3.42
2023-09-06T09:16:59.232Z,3.58
2023-09-06T09:22:00.950Z,3.20
2023-09-06T09:27:04.168Z,2.92
2023-09-06T09:32:06.128Z,3.03
2023-09-06T09:37:09.655Z,2.85
2023-09-06T09:42:11.943Z,3.15
2023-09-06T09:47:35.062Z,3.05
2023-09-06T09:52:37.337Z,2.70
2023-09-06T09:57:40.125Z,2.88
2023-09-06T10:02:47.017Z,2.72
2023-09-06T10:07:50.071Z,2.50
2023-09-06T10:12:53.229Z,2.50
2023-09-06T10:17:58.941Z,2.58
2023-09-06T10:23:01.292Z,2.97
2023-09-06T10:28:03.046Z,2.78
2023-09-06T10:33:05.034Z,2.25
2023-09-06T10:38:08.951Z,2.13
2023-09-06T10:43:11.438Z,2.00
2023-09-06T10:48:13.390Z,1.95
2023-09-06T10:53:20.160Z,2.30
2023-09-06T10:58:25.040Z,2.17
2023-09-06T11:03:33.148Z,2.30
2023-09-06T11:08:35.037Z,2.20
2023-09-06T11:13:38.370Z,2.15
2023-09-06T11:18:51.362Z,2.03
2023-09-06T11:23:54.886Z,2.20
2023-09-06T11:29:06.386Z,1.45
2023-09-06T11:34:10.457Z,2.03
2023-09-06T11:39:20.029Z,1.75
2023-09-06T11:44:24.521Z,1.73
2023-09-06T11:49:27.180Z,2.13
2023-09-06T11:54:33.009Z,1.95
2023-09-06T11:59:34.771Z,1.77
2023-09-06T12:04:36.579Z,2.33
2023-09-06T12:09:38.305Z,1.83
2023-09-06T12:14:43.806Z,1.73
2023-09-06T12:19:45.794Z,1.77
2023-09-06T12:24:48.758Z,1.95
2023-09-06T12:29:50.680Z,1.83
2023-09-06T12:34:53.750Z,1.83
2023-09-06T12:39:55.853Z,1.67
2023-09-06T12:44:57.619Z,1.73
2023-09-06T12:50:01.045Z,1.67
2023-09-06T12:55:05.894Z,1.80
2023-09-06T13:00:08.778Z,1.80
2023-09-06T13:05:11.527Z,2.05
2023-09-06T13:10:13.843Z,1.90
2023-09-06T13:15:15.605Z,1.80
2023-09-06T13:20:17.343Z,1.83
2023-09-06T13:25:19.531Z,2.03
2023-09-06T13:30:21.580Z,2.38
2023-09-06T13:35:23.626Z,2.35
2023-09-06T13:40:25.399Z,2.53
2023-09-06T13:45:30.111Z,2.38
2023-09-06T13:50:32.334Z,2.47
2023-09-06T13:55:34.096Z,2.35
2023-09-06T14:00:35.886Z,2.60
2023-09-06T14:05:38.282Z,2.20
2023-09-06T14:10:40.069Z,2.50
2023-09-06T14:15:41.782Z,2.20
2023-09-06T14:20:43.563Z,2.45
2023-09-06T14:25:45.304Z,2.33
2023-09-06T14:30:47.042Z,2.00
2023-09-06T14:35:48.684Z,2.08
2023-09-06T14:40:50.407Z,1.65
2023-09-06T14:45:52.258Z,2.50
2023-09-06T14:51:04.659Z,2.15
2023-09-06T14:56:07.243Z,2.53
2023-09-06T15:01:09.869Z,2.20
2023-09-06T15:06:13.793Z,2.17
2023-09-06T15:11:15.481Z,1.88
2023-09-06T15:16:17.252Z,2.10
2023-09-06T15:21:18.944Z,2.20
2023-09-06T15:26:22.423Z,2.00
2023-09-06T15:31:25.318Z,1.83
2023-09-06T15:36:31.223Z,2.15
2023-09-06T15:41:33.762Z,2.22
2023-09-06T15:46:36.685Z,2.53
2023-09-06T15:51:38.497Z,2.38
2023-09-06T15:56:40.357Z,2.40
2023-09-06T16:01:42.925Z,2.08
2023-09-06T16:06:44.727Z,2.30
2023-09-06T16:11:46.404Z,2.20
2023-09-06T16:16:48.164Z,2.10
2023-09-06T16:21:49.904Z,3.67
2023-09-06T16:26:55.962Z,3.42
2023-09-06T16:31:57.872Z,2.30
2023-09-06T16:37:00.066Z,2.65
2023-09-06T16:42:02.306Z,3.20
2023-09-06T16:47:06.108Z,2.00
2023-09-06T16:52:09.067Z,2.20
2023-09-06T16:57:10.960Z,2.10
2023-09-06T17:02:12.846Z,2.03
2023-09-06T17:07:14.869Z,2.58
2023-09-06T17:12:16.560Z,2.55
2023-09-06T17:17:20.237Z,2.65
2023-09-06T17:22:22.051Z,2.10
2023-09-06T17:27:23.771Z,2.80
2023-09-06T17:32:27.064Z,2.58
2023-09-06T17:37:29.124Z,2.42
2023-09-06T17:42:32.545Z,2.88
2023-09-06T17:47:34.540Z,2.90
2023-09-06T17:52:39.591Z,2.63
2023-09-06T17:57:42.890Z,2.95
2023-09-06T18:02:45.480Z,2.67
2023-09-06T18:07:47.775Z,3.70
2023-09-06T18:12:49.525Z,3.85
2023-09-06T18:17:52.520Z,3.70
2023-09-06T18:22:55.025Z,2.90
2023-09-06T18:27:56.775Z,3.08
2023-09-06T18:32:58.518Z,3.03
2023-09-06T18:38:00.273Z,3.20
2023-09-06T18:43:03.623Z,3.92
2023-09-06T18:48:08.409Z,3.25
2023-09-06T18:58:12.853Z,3.72
2023-09-06T19:03:15.099Z,4.60
2023-09-06T19:08:17.514Z,4.22
2023-09-06T19:13:20.083Z,4.05
2023-09-06T19:18:21.750Z,4.18
2023-09-06T19:23:23.536Z,4.28
2023-09-06T19:28:25.511Z,4.05
2023-09-06T19:33:27.958Z,4.15
2023-09-06T19:38:31.334Z,3.38
2023-09-06T19:43:33.266Z,3.55
2023-09-06T19:48:41.194Z,4.57
2023-09-06T19:53:49.080Z,3.75
2023-09-06T19:58:54.283Z,4.20
2023-09-06T20:08:59.094Z,3.75
2023-09-06T20:14:01.274Z,4.43
2023-09-06T20:19:03.529Z,3.90
2023-09-06T20:24:05.546Z,4.18
2023-09-06T20:29:09.817Z,4.25
2023-09-06T20:34:11.720Z,3.92
2023-09-06T20:39:13.705Z,4.32
2023-09-06T20:44:15.382Z,4.53
2023-09-06T20:49:17.731Z,3.92
2023-09-06T20:54:19.463Z,4.35
2023-09-06T20:59:21.209Z,5.57
2023-09-06T21:04:23.010Z,4.47
2023-09-06T21:09:25.074Z,7.10
2023-09-06T21:14:26.742Z,6.30
2023-09-06T21:19:30.127Z,5.57
2023-09-06T21:24:32.290Z,5.03
2023-09-06T21:29:33.968Z,5.05
2023-09-06T21:34:35.702Z,5.43
2023-09-06T21:39:37.444Z,5.15
2023-09-06T21:44:39.594Z,5.47
2023-09-06T21:49:41.370Z,5.57
2023-09-06T21:54:43.137Z,5.22
2023-09-06T21:59:44.983Z,5.30
2023-09-06T22:04:46.723Z,5.40
2023-09-06T22:10:07.816Z,5.30
2023-09-06T22:15:28.532Z,4.80
2023-09-06T22:20:32.913Z,5.60
2023-09-06T22:25:35.400Z,5.05
2023-09-06T22:30:43.706Z,5.68
2023-09-06T22:35:45.625Z,5.18
2023-09-06T22:40:47.408Z,5.53
2023-09-06T22:45:51.286Z,5.10
2023-09-06T22:50:53.095Z,5.60
2023-09-06T22:55:54.903Z,4.95
2023-09-06T23:01:04.712Z,4.80
2023-09-06T23:06:11.451Z,9.18
2023-09-06T23:11:16.760Z,5.00
2023-09-06T23:16:18.528Z,5.85
2023-09-06T23:21:23.224Z,5.60
2023-09-06T23:26:32.463Z,5.47
2023-09-06T23:31:38.233Z,4.95
2023-09-06T23:36:40.188Z,5.32
2023-09-06T23:41:42.865Z,5.30
2023-09-06T23:46:44.772Z,5.20
2023-09-06T23:51:46.639Z,6.20
2023-09-06T23:56:48.402Z,7.90
